Winterswijk, Netherlands
Current Conditions -  °F | °C
As of 3:20 PM on Thursday 30 Oct 2014 (Local Time) from EDLV Reporting Station
Few Clouds Few Clouds  
Wind Chill: 61°   Ceiling: Unl
Heat Index: 61°   Visibility: 4mi
Dew Point: 61°   Wind: 6mph
Humidity: 100%   Direction: 160°SSE
Pressure: 30.18"   Gusts: NA
Location:  51.97°N, 6.72°E
Report Text: EDLV 301420Z 16005KT 120V180 6000 FEW010 16/16 Q1022
Loading
Personal Weather Stations






























Interactive Weather Map
Tropical Storm Tracking
New forecast layout! Learn more

10-Day Weather Forecast

Advertisements
Track Severe Weather on mobile